sensor_id;sensor_type;location;lat;lon;timestamp;P1;durP1;ratioP1;P2;durP2;ratioP2
23181;SDS011;11759;51.282;6.642;2023-10-09T00:01:35;40.25;;;17.85;;
23181;SDS011;11759;51.282;6.642;2023-10-09T00:04:04;40.30;;;16.63;;
23181;SDS011;11759;51.282;6.642;2023-10-09T00:06:37;45.78;;;18.48;;
23181;SDS011;11759;51.282;6.642;2023-10-09T00:09:04;43.13;;;17.30;;
23181;SDS011;11759;51.282;6.642;2023-10-09T00:11:50;47.13;;;17.67;;
23181;SDS011;11759;51.282;6.642;2023-10-09T00:14:24;41.92;;;16.33;;
23181;SDS011;11759;51.282;6.642;2023-10-09T00:16:52;44.17;;;16.77;;
23181;SDS011;11759;51.282;6.642;2023-10-09T00:19:48;39.45;;;17.63;;
23181;SDS011;11759;51.282;6.642;2023-10-09T00:22:17;47.53;;;16.77;;
23181;SDS011;11759;51.282;6.642;2023-10-09T00:24:50;38.22;;;15.27;;
23181;SDS011;11759;51.282;6.642;2023-10-09T00:27:42;35.28;;;14.73;;
23181;SDS011;11759;51.282;6.642;2023-10-09T00:30:10;41.30;;;15.43;;
23181;SDS011;11759;51.282;6.642;2023-10-09T00:32:41;41.47;;;16.38;;
23181;SDS011;11759;51.282;6.642;2023-10-09T00:35:11;37.95;;;15.82;;
23181;SDS011;11759;51.282;6.642;2023-10-09T00:37:56;35.70;;;15.10;;
23181;SDS011;11759;51.282;6.642;2023-10-09T00:40:32;39.92;;;15.23;;
23181;SDS011;11759;51.282;6.642;2023-10-09T00:43:02;36.03;;;14.48;;
23181;SDS011;11759;51.282;6.642;2023-10-09T00:45:39;38.28;;;14.98;;
23181;SDS011;11759;51.282;6.642;2023-10-09T00:48:07;31.92;;;13.93;;
23181;SDS011;11759;51.282;6.642;2023-10-09T00:50:35;32.97;;;14.73;;
23181;SDS011;11759;51.282;6.642;2023-10-09T00:53:02;34.13;;;13.80;;
23181;SDS011;11759;51.282;6.642;2023-10-09T00:55:32;30.95;;;14.07;;
23181;SDS011;11759;51.282;6.642;2023-10-09T00:58:12;28.93;;;13.40;;
23181;SDS011;11759;51.282;6.642;2023-10-09T01:00:43;29.40;;;12.80;;
23181;SDS011;11759;51.282;6.642;2023-10-09T01:03:11;30.70;;;13.00;;
23181;SDS011;11759;51.282;6.642;2023-10-09T01:05:50;28.55;;;12.93;;
23181;SDS011;11759;51.282;6.642;2023-10-09T01:08:25;26.38;;;12.35;;
23181;SDS011;11759;51.282;6.642;2023-10-09T01:11:13;28.13;;;12.55;;
23181;SDS011;11759;51.282;6.642;2023-10-09T01:13:45;26.27;;;11.65;;
23181;SDS011;11759;51.282;6.642;2023-10-09T01:16:12;26.38;;;12.52;;
23181;SDS011;11759;51.282;6.642;2023-10-09T01:18:43;27.87;;;12.87;;
23181;SDS011;11759;51.282;6.642;2023-10-09T01:21:17;27.88;;;13.30;;
23181;SDS011;11759;51.282;6.642;2023-10-09T01:23:45;30.42;;;13.25;;
23181;SDS011;11759;51.282;6.642;2023-10-09T01:26:34;30.02;;;12.50;;
23181;SDS011;11759;51.282;6.642;2023-10-09T01:29:13;37.92;;;12.52;;
23181;SDS011;11759;51.282;6.642;2023-10-09T01:31:47;28.35;;;12.73;;
23181;SDS011;11759;51.282;6.642;2023-10-09T01:34:28;27.65;;;11.20;;
23181;SDS011;11759;51.282;6.642;2023-10-09T01:37:21;28.48;;;11.65;;
23181;SDS011;11759;51.282;6.642;2023-10-09T01:39:58;26.48;;;12.55;;
23181;SDS011;11759;51.282;6.642;2023-10-09T01:42:26;24.65;;;11.90;;
23181;SDS011;11759;51.282;6.642;2023-10-09T01:45:01;27.25;;;11.57;;
23181;SDS011;11759;51.282;6.642;2023-10-09T01:47:54;22.27;;;11.60;;
23181;SDS011;11759;51.282;6.642;2023-10-09T01:50:21;22.65;;;11.73;;
23181;SDS011;11759;51.282;6.642;2023-10-09T01:52:58;23.13;;;11.15;;
23181;SDS011;11759;51.282;6.642;2023-10-09T01:55:31;21.50;;;10.95;;
23181;SDS011;11759;51.282;6.642;2023-10-09T01:58:05;25.17;;;11.73;;
23181;SDS011;11759;51.282;6.642;2023-10-09T02:00:43;23.17;;;10.40;;
23181;SDS011;11759;51.282;6.642;2023-10-09T02:03:16;23.25;;;10.73;;
23181;SDS011;11759;51.282;6.642;2023-10-09T02:05:44;26.75;;;10.95;;
23181;SDS011;11759;51.282;6.642;2023-10-09T02:08:11;21.02;;;10.30;;
23181;SDS011;11759;51.282;6.642;2023-10-09T02:10:39;19.63;;;10.05;;
23181;SDS011;11759;51.282;6.642;2023-10-09T02:13:06;24.35;;;10.93;;
23181;SDS011;11759;51.282;6.642;2023-10-09T02:15:35;20.58;;;9.20;;
23181;SDS011;11759;51.282;6.642;2023-10-09T02:18:10;19.05;;;9.57;;
23181;SDS011;11759;51.282;6.642;2023-10-09T02:20:43;21.70;;;9.50;;
23181;SDS011;11759;51.282;6.642;2023-10-09T02:23:14;19.50;;;10.57;;
23181;SDS011;11759;51.282;6.642;2023-10-09T02:25:47;26.50;;;10.43;;
23181;SDS011;11759;51.282;6.642;2023-10-09T02:28:19;21.95;;;9.68;;
23181;SDS011;11759;51.282;6.642;2023-10-09T02:30:46;23.55;;;10.52;;
23181;SDS011;11759;51.282;6.642;2023-10-09T02:37:39;22.67;;;9.90;;
23181;SDS011;11759;51.282;6.642;2023-10-09T02:40:07;25.95;;;9.57;;
23181;SDS011;11759;51.282;6.642;2023-10-09T02:42:35;26.40;;;11.07;;
23181;SDS011;11759;51.282;6.642;2023-10-09T02:45:01;26.52;;;10.15;;
23181;SDS011;11759;51.282;6.642;2023-10-09T02:47:30;23.55;;;9.05;;
23181;SDS011;11759;51.282;6.642;2023-10-09T02:50:04;18.92;;;9.63;;
23181;SDS011;11759;51.282;6.642;2023-10-09T02:52:46;20.13;;;10.05;;
23181;SDS011;11759;51.282;6.642;2023-10-09T02:55:14;26.90;;;10.13;;
23181;SDS011;11759;51.282;6.642;2023-10-09T02:57:50;22.50;;;9.32;;
23181;SDS011;11759;51.282;6.642;2023-10-09T03:02:59;19.05;;;9.45;;
23181;SDS011;11759;51.282;6.642;2023-10-09T03:05:26;19.60;;;9.15;;
23181;SDS011;11759;51.282;6.642;2023-10-09T03:07:55;20.77;;;10.35;;
23181;SDS011;11759;51.282;6.642;2023-10-09T03:10:22;19.92;;;9.90;;
23181;SDS011;11759;51.282;6.642;2023-10-09T03:12:49;21.08;;;9.63;;
23181;SDS011;11759;51.282;6.642;2023-10-09T03:15:19;23.00;;;9.02;;
23181;SDS011;11759;51.282;6.642;2023-10-09T03:17:46;24.73;;;10.07;;
23181;SDS011;11759;51.282;6.642;2023-10-09T03:20:15;22.38;;;9.63;;
23181;SDS011;11759;51.282;6.642;2023-10-09T03:22:45;24.80;;;10.73;;
23181;SDS011;11759;51.282;6.642;2023-10-09T03:25:12;19.20;;;9.93;;
23181;SDS011;11759;51.282;6.642;2023-10-09T03:27:39;20.70;;;9.68;;
23181;SDS011;11759;51.282;6.642;2023-10-09T03:30:14;17.33;;;9.18;;
23181;SDS011;11759;51.282;6.642;2023-10-09T03:32:53;24.02;;;9.75;;
23181;SDS011;11759;51.282;6.642;2023-10-09T03:35:21;21.08;;;10.15;;
23181;SDS011;11759;51.282;6.642;2023-10-09T03:37:55;22.40;;;9.95;;
23181;SDS011;11759;51.282;6.642;2023-10-09T03:40:41;20.70;;;9.65;;
23181;SDS011;11759;51.282;6.642;2023-10-09T03:43:14;17.15;;;9.18;;
23181;SDS011;11759;51.282;6.642;2023-10-09T03:45:41;21.60;;;9.23;;
23181;SDS011;11759;51.282;6.642;2023-10-09T03:48:20;24.10;;;10.13;;
23181;SDS011;11759;51.282;6.642;2023-10-09T03:50:58;16.52;;;9.43;;
23181;SDS011;11759;51.282;6.642;2023-10-09T03:53:38;20.05;;;9.30;;
23181;SDS011;11759;51.282;6.642;2023-10-09T03:56:06;24.48;;;9.10;;
23181;SDS011;11759;51.282;6.642;2023-10-09T03:58:40;21.80;;;10.50;;
23181;SDS011;11759;51.282;6.642;2023-10-09T04:01:09;19.10;;;9.60;;
23181;SDS011;11759;51.282;6.642;2023-10-09T04:03:43;22.60;;;9.15;;
23181;SDS011;11759;51.282;6.642;2023-10-09T04:06:11;16.63;;;8.70;;
23181;SDS011;11759;51.282;6.642;2023-10-09T04:08:37;18.63;;;9.05;;
23181;SDS011;11759;51.282;6.642;2023-10-09T04:11:10;17.38;;;8.55;;
23181;SDS011;11759;51.282;6.642;2023-10-09T04:13:45;18.10;;;9.27;;
23181;SDS011;11759;51.282;6.642;2023-10-09T04:16:12;19.65;;;9.20;;
23181;SDS011;11759;51.282;6.642;2023-10-09T04:18:57;29.10;;;9.75;;
23181;SDS011;11759;51.282;6.642;2023-10-09T04:21:24;16.30;;;8.57;;
23181;SDS011;11759;51.282;6.642;2023-10-09T04:24:01;18.95;;;9.00;;
23181;SDS011;11759;51.282;6.642;2023-10-09T04:26:39;21.17;;;9.23;;
23181;SDS011;11759;51.282;6.642;2023-10-09T04:29:13;17.42;;;8.57;;
23181;SDS011;11759;51.282;6.642;2023-10-09T04:31:59;19.05;;;8.95;;
23181;SDS011;11759;51.282;6.642;2023-10-09T04:34:27;16.98;;;8.23;;
23181;SDS011;11759;51.282;6.642;2023-10-09T04:36:57;16.33;;;9.00;;
23181;SDS011;11759;51.282;6.642;2023-10-09T04:39:27;18.90;;;8.98;;
23181;SDS011;11759;51.282;6.642;2023-10-09T04:41:57;19.92;;;9.27;;
23181;SDS011;11759;51.282;6.642;2023-10-09T04:44:43;15.35;;;8.48;;
23181;SDS011;11759;51.282;6.642;2023-10-09T04:47:29;22.85;;;8.88;;
23181;SDS011;11759;51.282;6.642;2023-10-09T04:50:09;19.02;;;9.00;;
23181;SDS011;11759;51.282;6.642;2023-10-09T04:52:41;18.27;;;9.13;;
23181;SDS011;11759;51.282;6.642;2023-10-09T04:55:08;19.73;;;9.98;;
23181;SDS011;11759;51.282;6.642;2023-10-09T04:57:38;23.27;;;9.43;;
23181;SDS011;11759;51.282;6.642;2023-10-09T05:00:28;18.77;;;9.57;;
23181;SDS011;11759;51.282;6.642;2023-10-09T05:02:58;16.80;;;9.18;;
23181;SDS011;11759;51.282;6.642;2023-10-09T05:05:39;21.00;;;9.20;;
23181;SDS011;11759;51.282;6.642;2023-10-09T05:08:14;19.38;;;8.70;;
23181;SDS011;11759;51.282;6.642;2023-10-09T05:13:36;20.90;;;9.00;;
23181;SDS011;11759;51.282;6.642;2023-10-09T05:16:08;18.75;;;8.48;;
23181;SDS011;11759;51.282;6.642;2023-10-09T05:18:45;17.15;;;8.88;;
23181;SDS011;11759;51.282;6.642;2023-10-09T05:23:58;14.98;;;7.50;;
23181;SDS011;11759;51.282;6.642;2023-10-09T05:26:48;18.77;;;9.35;;
23181;SDS011;11759;51.282;6.642;2023-10-09T05:32:06;16.05;;;8.60;;
23181;SDS011;11759;51.282;6.642;2023-10-09T05:34:38;23.80;;;9.93;;
23181;SDS011;11759;51.282;6.642;2023-10-09T05:37:28;18.23;;;8.20;;
23181;SDS011;11759;51.282;6.642;2023-10-09T05:40:01;18.05;;;9.18;;
23181;SDS011;11759;51.282;6.642;2023-10-09T05:42:29;24.83;;;9.38;;
23181;SDS011;11759;51.282;6.642;2023-10-09T05:45:04;20.05;;;9.75;;
23181;SDS011;11759;51.282;6.642;2023-10-09T05:47:44;19.67;;;9.25;;
23181;SDS011;11759;51.282;6.642;2023-10-09T05:50:20;18.55;;;9.52;;
23181;SDS011;11759;51.282;6.642;2023-10-09T05:52:50;22.02;;;9.55;;
23181;SDS011;11759;51.282;6.642;2023-10-09T05:55:18;19.15;;;9.23;;
23181;SDS011;11759;51.282;6.642;2023-10-09T05:57:51;18.80;;;9.68;;
23181;SDS011;11759;51.282;6.642;2023-10-09T06:00:53;19.65;;;9.50;;
23181;SDS011;11759;51.282;6.642;2023-10-09T06:03:31;17.83;;;9.50;;
23181;SDS011;11759;51.282;6.642;2023-10-09T06:06:17;19.65;;;9.55;;
23181;SDS011;11759;51.282;6.642;2023-10-09T06:09:02;18.30;;;8.95;;
23181;SDS011;11759;51.282;6.642;2023-10-09T06:11:43;21.05;;;9.00;;
23181;SDS011;11759;51.282;6.642;2023-10-09T06:14:20;23.25;;;9.82;;
23181;SDS011;11759;51.282;6.642;2023-10-09T06:16:57;21.25;;;10.45;;
23181;SDS011;11759;51.282;6.642;2023-10-09T06:19:28;23.08;;;10.27;;
23181;SDS011;11759;51.282;6.642;2023-10-09T06:21:58;19.83;;;10.10;;
23181;SDS011;11759;51.282;6.642;2023-10-09T06:24:44;22.08;;;9.93;;
23181;SDS011;11759;51.282;6.642;2023-10-09T06:27:20;18.98;;;8.82;;
23181;SDS011;11759;51.282;6.642;2023-10-09T06:30:09;19.30;;;9.43;;
23181;SDS011;11759;51.282;6.642;2023-10-09T06:32:50;18.85;;;10.00;;
23181;SDS011;11759;51.282;6.642;2023-10-09T06:35:29;25.70;;;9.75;;
23181;SDS011;11759;51.282;6.642;2023-10-09T06:38:01;19.77;;;9.70;;
23181;SDS011;11759;51.282;6.642;2023-10-09T06:40:29;21.00;;;10.75;;
23181;SDS011;11759;51.282;6.642;2023-10-09T06:43:15;22.27;;;10.52;;
23181;SDS011;11759;51.282;6.642;2023-10-09T06:45:48;21.88;;;9.52;;
23181;SDS011;11759;51.282;6.642;2023-10-09T06:48:21;24.33;;;10.40;;
23181;SDS011;11759;51.282;6.642;2023-10-09T06:51:04;24.52;;;10.40;;
23181;SDS011;11759;51.282;6.642;2023-10-09T06:53:54;20.52;;;10.05;;
23181;SDS011;11759;51.282;6.642;2023-10-09T06:56:26;19.27;;;9.65;;
23181;SDS011;11759;51.282;6.642;2023-10-09T06:58:56;19.38;;;10.52;;
23181;SDS011;11759;51.282;6.642;2023-10-09T07:01:24;25.58;;;11.43;;
23181;SDS011;11759;51.282;6.642;2023-10-09T07:04:06;22.08;;;10.45;;
23181;SDS011;11759;51.282;6.642;2023-10-09T07:06:46;22.27;;;10.77;;
23181;SDS011;11759;51.282;6.642;2023-10-09T07:09:13;24.35;;;10.75;;
23181;SDS011;11759;51.282;6.642;2023-10-09T07:11:40;24.08;;;10.18;;
23181;SDS011;11759;51.282;6.642;2023-10-09T07:17:09;24.77;;;10.95;;
23181;SDS011;11759;51.282;6.642;2023-10-09T07:19:54;23.75;;;10.60;;
23181;SDS011;11759;51.282;6.642;2023-10-09T07:22:21;24.75;;;10.60;;
23181;SDS011;11759;51.282;6.642;2023-10-09T07:27:29;25.23;;;10.32;;
23181;SDS011;11759;51.282;6.642;2023-10-09T07:30:19;17.80;;;10.18;;
23181;SDS011;11759;51.282;6.642;2023-10-09T07:35:32;22.30;;;10.35;;
23181;SDS011;11759;51.282;6.642;2023-10-09T07:38:20;25.40;;;11.70;;
23181;SDS011;11759;51.282;6.642;2023-10-09T07:40:55;22.25;;;10.63;;
23181;SDS011;11759;51.282;6.642;2023-10-09T07:43:27;27.45;;;10.68;;
23181;SDS011;11759;51.282;6.642;2023-10-09T07:46:05;23.42;;;10.38;;
23181;SDS011;11759;51.282;6.642;2023-10-09T07:48:51;21.95;;;10.35;;
23181;SDS011;11759;51.282;6.642;2023-10-09T07:51:20;19.70;;;10.48;;
23181;SDS011;11759;51.282;6.642;2023-10-09T07:53:57;22.35;;;10.55;;
23181;SDS011;11759;51.282;6.642;2023-10-09T07:56:33;20.63;;;11.15;;
23181;SDS011;11759;51.282;6.642;2023-10-09T07:59:12;22.20;;;10.15;;
23181;SDS011;11759;51.282;6.642;2023-10-09T08:01:49;22.48;;;10.38;;
23181;SDS011;11759;51.282;6.642;2023-10-09T08:04:21;18.50;;;9.90;;
23181;SDS011;11759;51.282;6.642;2023-10-09T08:07:05;21.52;;;10.98;;
23181;SDS011;11759;51.282;6.642;2023-10-09T08:09:55;20.58;;;10.90;;
23181;SDS011;11759;51.282;6.642;2023-10-09T08:12:50;26.42;;;10.45;;
23181;SDS011;11759;51.282;6.642;2023-10-09T08:15:17;19.30;;;9.80;;
23181;SDS011;11759;51.282;6.642;2023-10-09T08:17:45;22.23;;;10.25;;
23181;SDS011;11759;51.282;6.642;2023-10-09T08:20:17;24.25;;;11.10;;
23181;SDS011;11759;51.282;6.642;2023-10-09T08:22:44;29.00;;;10.27;;
23181;SDS011;11759;51.282;6.642;2023-10-09T08:25:16;20.17;;;10.32;;
23181;SDS011;11759;51.282;6.642;2023-10-09T08:27:59;22.13;;;10.50;;
23181;SDS011;11759;51.282;6.642;2023-10-09T08:30:41;21.80;;;10.27;;
23181;SDS011;11759;51.282;6.642;2023-10-09T08:33:16;17.55;;;9.70;;
23181;SDS011;11759;51.282;6.642;2023-10-09T08:35:55;19.42;;;9.93;;
23181;SDS011;11759;51.282;6.642;2023-10-09T08:38:28;21.38;;;9.75;;
23181;SDS011;11759;51.282;6.642;2023-10-09T08:41:09;22.45;;;9.73;;
23181;SDS011;11759;51.282;6.642;2023-10-09T08:43:47;22.55;;;9.18;;
23181;SDS011;11759;51.282;6.642;2023-10-09T08:46:18;22.38;;;10.13;;
23181;SDS011;11759;51.282;6.642;2023-10-09T08:48:46;18.60;;;9.98;;
23181;SDS011;11759;51.282;6.642;2023-10-09T08:51:14;18.10;;;9.65;;
23181;SDS011;11759;51.282;6.642;2023-10-09T08:53:42;22.98;;;10.07;;
23181;SDS011;11759;51.282;6.642;2023-10-09T08:56:12;19.55;;;9.57;;
23181;SDS011;11759;51.282;6.642;2023-10-09T08:58:41;21.90;;;10.68;;
23181;SDS011;11759;51.282;6.642;2023-10-09T09:01:08;22.33;;;10.30;;
23181;SDS011;11759;51.282;6.642;2023-10-09T09:03:38;23.15;;;10.30;;
23181;SDS011;11759;51.282;6.642;2023-10-09T09:06:07;21.67;;;10.40;;
23181;SDS011;11759;51.282;6.642;2023-10-09T09:08:33;24.63;;;10.15;;
23181;SDS011;11759;51.282;6.642;2023-10-09T09:11:04;25.05;;;10.30;;
23181;SDS011;11759;51.282;6.642;2023-10-09T09:16:20;30.20;;;10.15;;
23181;SDS011;11759;51.282;6.642;2023-10-09T09:21:37;20.05;;;10.02;;
23181;SDS011;11759;51.282;6.642;2023-10-09T09:24:12;24.65;;;10.10;;
23181;SDS011;11759;51.282;6.642;2023-10-09T09:26:53;25.42;;;10.63;;
23181;SDS011;11759;51.282;6.642;2023-10-09T09:32:06;24.77;;;10.38;;
23181;SDS011;11759;51.282;6.642;2023-10-09T09:34:47;19.83;;;9.75;;
23181;SDS011;11759;51.282;6.642;2023-10-09T09:37:22;21.10;;;10.00;;
23181;SDS011;11759;51.282;6.642;2023-10-09T09:39:58;21.75;;;10.05;;
23181;SDS011;11759;51.282;6.642;2023-10-09T09:42:37;24.40;;;10.70;;
23181;SDS011;11759;51.282;6.642;2023-10-09T09:45:11;20.35;;;10.77;;
23181;SDS011;11759;51.282;6.642;2023-10-09T09:47:37;20.58;;;10.13;;
23181;SDS011;11759;51.282;6.642;2023-10-09T09:50:05;22.45;;;10.38;;
23181;SDS011;11759;51.282;6.642;2023-10-09T09:52:50;22.33;;;10.13;;
23181;SDS011;11759;51.282;6.642;2023-10-09T09:55:24;16.27;;;9.48;;
23181;SDS011;11759;51.282;6.642;2023-10-09T09:57:57;21.40;;;9.48;;
23181;SDS011;11759;51.282;6.642;2023-10-09T10:00:27;21.00;;;10.25;;
23181;SDS011;11759;51.282;6.642;2023-10-09T10:02:58;23.65;;;10.38;;
23181;SDS011;11759;51.282;6.642;2023-10-09T10:05:28;21.48;;;9.85;;
23181;SDS011;11759;51.282;6.642;2023-10-09T10:07:57;22.55;;;9.85;;
23181;SDS011;11759;51.282;6.642;2023-10-09T10:13:04;17.63;;;9.63;;
23181;SDS011;11759;51.282;6.642;2023-10-09T10:18:24;19.30;;;9.00;;
23181;SDS011;11759;51.282;6.642;2023-10-09T10:29:36;16.67;;;8.80;;
23181;SDS011;11759;51.282;6.642;2023-10-09T10:32:04;16.88;;;9.27;;
23181;SDS011;11759;51.282;6.642;2023-10-09T10:37:36;21.27;;;9.10;;
23181;SDS011;11759;51.282;6.642;2023-10-09T10:40:27;23.90;;;8.95;;
23181;SDS011;11759;51.282;6.642;2023-10-09T10:43:16;19.05;;;8.15;;
23181;SDS011;11759;51.282;6.642;2023-10-09T10:46:02;18.35;;;10.15;;
23181;SDS011;11759;51.282;6.642;2023-10-09T10:48:37;19.73;;;9.98;;
23181;SDS011;11759;51.282;6.642;2023-10-09T10:51:04;18.83;;;9.27;;
23181;SDS011;11759;51.282;6.642;2023-10-09T10:53:31;19.33;;;9.55;;
23181;SDS011;11759;51.282;6.642;2023-10-09T10:56:19;18.27;;;10.00;;
23181;SDS011;11759;51.282;6.642;2023-10-09T10:58:51;20.88;;;10.32;;
23181;SDS011;11759;51.282;6.642;2023-10-09T11:01:31;17.20;;;8.90;;
23181;SDS011;11759;51.282;6.642;2023-10-09T11:04:17;21.65;;;9.75;;
23181;SDS011;11759;51.282;6.642;2023-10-09T11:07:00;19.42;;;9.77;;
23181;SDS011;11759;51.282;6.642;2023-10-09T11:09:48;24.40;;;10.25;;
23181;SDS011;11759;51.282;6.642;2023-10-09T11:12:31;19.88;;;9.30;;
23181;SDS011;11759;51.282;6.642;2023-10-09T11:15:06;23.38;;;9.27;;
23181;SDS011;11759;51.282;6.642;2023-10-09T11:17:35;19.42;;;8.80;;
23181;SDS011;11759;51.282;6.642;2023-10-09T11:20:03;21.33;;;8.80;;
23181;SDS011;11759;51.282;6.642;2023-10-09T11:22:49;17.92;;;8.38;;
23181;SDS011;11759;51.282;6.642;2023-10-09T11:25:37;21.88;;;8.60;;
23181;SDS011;11759;51.282;6.642;2023-10-09T11:28:18;17.65;;;8.40;;
23181;SDS011;11759;51.282;6.642;2023-10-09T11:31:14;18.88;;;9.00;;
23181;SDS011;11759;51.282;6.642;2023-10-09T11:36:15;18.70;;;9.32;;
23181;SDS011;11759;51.282;6.642;2023-10-09T11:38:42;17.42;;;8.27;;
23181;SDS011;11759;51.282;6.642;2023-10-09T11:41:16;20.67;;;8.27;;
23181;SDS011;11759;51.282;6.642;2023-10-09T11:43:46;21.10;;;8.80;;
23181;SDS011;11759;51.282;6.642;2023-10-09T11:46:24;16.30;;;8.05;;
23181;SDS011;11759;51.282;6.642;2023-10-09T11:49:14;18.35;;;8.60;;
23181;SDS011;11759;51.282;6.642;2023-10-09T11:51:47;17.08;;;8.60;;
23181;SDS011;11759;51.282;6.642;2023-10-09T11:54:33;17.20;;;7.55;;
23181;SDS011;11759;51.282;6.642;2023-10-09T11:56:59;17.50;;;9.20;;
23181;SDS011;11759;51.282;6.642;2023-10-09T11:59:32;16.40;;;7.75;;
23181;SDS011;11759;51.282;6.642;2023-10-09T12:02:04;18.17;;;8.60;;
23181;SDS011;11759;51.282;6.642;2023-10-09T12:04:31;19.40;;;8.52;;
23181;SDS011;11759;51.282;6.642;2023-10-09T12:06:58;15.60;;;7.72;;
23181;SDS011;11759;51.282;6.642;2023-10-09T12:09:46;18.15;;;8.43;;
23181;SDS011;11759;51.282;6.642;2023-10-09T12:12:14;16.98;;;8.27;;
23181;SDS011;11759;51.282;6.642;2023-10-09T12:14:41;19.35;;;8.60;;
23181;SDS011;11759;51.282;6.642;2023-10-09T12:17:08;17.77;;;8.85;;
23181;SDS011;11759;51.282;6.642;2023-10-09T12:19:36;18.92;;;8.75;;
23181;SDS011;11759;51.282;6.642;2023-10-09T12:22:05;19.05;;;10.15;;
23181;SDS011;11759;51.282;6.642;2023-10-09T12:24:33;20.38;;;9.15;;
23181;SDS011;11759;51.282;6.642;2023-10-09T12:27:00;18.77;;;8.05;;
23181;SDS011;11759;51.282;6.642;2023-10-09T12:29:27;18.63;;;8.82;;
23181;SDS011;11759;51.282;6.642;2023-10-09T12:31:56;19.38;;;9.30;;
23181;SDS011;11759;51.282;6.642;2023-10-09T12:34:26;22.90;;;9.60;;
23181;SDS011;11759;51.282;6.642;2023-10-09T12:36:53;20.30;;;9.25;;
23181;SDS011;11759;51.282;6.642;2023-10-09T12:39:21;19.30;;;8.52;;
23181;SDS011;11759;51.282;6.642;2023-10-09T12:41:48;20.05;;;9.10;;
23181;SDS011;11759;51.282;6.642;2023-10-09T12:44:15;18.05;;;8.20;;
23181;SDS011;11759;51.282;6.642;2023-10-09T12:46:42;20.05;;;9.48;;
23181;SDS011;11759;51.282;6.642;2023-10-09T12:49:19;21.77;;;9.48;;
23181;SDS011;11759;51.282;6.642;2023-10-09T12:51:51;19.38;;;9.15;;
23181;SDS011;11759;51.282;6.642;2023-10-09T12:54:19;19.95;;;9.13;;
23181;SDS011;11759;51.282;6.642;2023-10-09T12:56:56;18.23;;;8.90;;
23181;SDS011;11759;51.282;6.642;2023-10-09T12:59:24;16.58;;;9.07;;
23181;SDS011;11759;51.282;6.642;2023-10-09T13:01:51;22.08;;;9.60;;
23181;SDS011;11759;51.282;6.642;2023-10-09T13:04:24;21.58;;;9.23;;
23181;SDS011;11759;51.282;6.642;2023-10-09T13:06:58;20.70;;;9.88;;
23181;SDS011;11759;51.282;6.642;2023-10-09T13:09:30;21.10;;;9.27;;
23181;SDS011;11759;51.282;6.642;2023-10-09T13:12:09;20.60;;;9.02;;
23181;SDS011;11759;51.282;6.642;2023-10-09T13:14:44;22.48;;;10.75;;
23181;SDS011;11759;51.282;6.642;2023-10-09T13:17:11;28.13;;;10.80;;
23181;SDS011;11759;51.282;6.642;2023-10-09T13:19:39;24.60;;;10.77;;
23181;SDS011;11759;51.282;6.642;2023-10-09T13:22:06;21.02;;;9.38;;
23181;SDS011;11759;51.282;6.642;2023-10-09T13:24:39;20.45;;;10.15;;
23181;SDS011;11759;51.282;6.642;2023-10-09T13:27:06;20.95;;;10.63;;
23181;SDS011;11759;51.282;6.642;2023-10-09T13:29:36;28.48;;;13.68;;
23181;SDS011;11759;51.282;6.642;2023-10-09T13:32:06;23.13;;;12.55;;
23181;SDS011;11759;51.282;6.642;2023-10-09T13:34:40;32.50;;;11.93;;
23181;SDS011;11759;51.282;6.642;2023-10-09T13:37:13;26.65;;;11.77;;
23181;SDS011;11759;51.282;6.642;2023-10-09T13:39:40;25.35;;;12.30;;
23181;SDS011;11759;51.282;6.642;2023-10-09T13:42:18;24.20;;;11.82;;
23181;SDS011;11759;51.282;6.642;2023-10-09T13:44:44;25.08;;;11.57;;
23181;SDS011;11759;51.282;6.642;2023-10-09T13:47:14;24.73;;;12.43;;
23181;SDS011;11759;51.282;6.642;2023-10-09T13:49:46;21.35;;;11.60;;
23181;SDS011;11759;51.282;6.642;2023-10-09T13:52:17;22.92;;;11.60;;
23181;SDS011;11759;51.282;6.642;2023-10-09T13:54:45;21.20;;;10.93;;
23181;SDS011;11759;51.282;6.642;2023-10-09T13:57:15;29.48;;;11.63;;
23181;SDS011;11759;51.282;6.642;2023-10-09T13:59:42;19.05;;;10.23;;
23181;SDS011;11759;51.282;6.642;2023-10-09T14:02:17;23.63;;;11.02;;
23181;SDS011;11759;51.282;6.642;2023-10-09T14:04:47;21.83;;;12.00;;
23181;SDS011;11759;51.282;6.642;2023-10-09T14:07:14;21.60;;;11.43;;
23181;SDS011;11759;51.282;6.642;2023-10-09T14:09:44;24.25;;;11.85;;
23181;SDS011;11759;51.282;6.642;2023-10-09T14:12:21;23.23;;;12.02;;
23181;SDS011;11759;51.282;6.642;2023-10-09T14:14:48;24.92;;;12.27;;
23181;SDS011;11759;51.282;6.642;2023-10-09T14:17:15;22.55;;;12.90;;
23181;SDS011;11759;51.282;6.642;2023-10-09T14:19:50;25.65;;;11.88;;
23181;SDS011;11759;51.282;6.642;2023-10-09T14:22:19;28.70;;;12.55;;
23181;SDS011;11759;51.282;6.642;2023-10-09T14:24:47;23.67;;;12.60;;
23181;SDS011;11759;51.282;6.642;2023-10-09T14:27:25;24.80;;;12.15;;
23181;SDS011;11759;51.282;6.642;2023-10-09T14:29:54;21.33;;;11.80;;
23181;SDS011;11759;51.282;6.642;2023-10-09T14:32:26;25.42;;;11.95;;
23181;SDS011;11759;51.282;6.642;2023-10-09T14:35:00;26.17;;;12.05;;
23181;SDS011;11759;51.282;6.642;2023-10-09T14:37:28;23.30;;;11.45;;
23181;SDS011;11759;51.282;6.642;2023-10-09T14:39:55;28.90;;;12.73;;
23181;SDS011;11759;51.282;6.642;2023-10-09T14:42:23;22.92;;;12.32;;
23181;SDS011;11759;51.282;6.642;2023-10-09T14:44:53;34.30;;;12.65;;
23181;SDS011;11759;51.282;6.642;2023-10-09T14:47:21;23.45;;;11.40;;
23181;SDS011;11759;51.282;6.642;2023-10-09T14:49:48;20.60;;;11.15;;
23181;SDS011;11759;51.282;6.642;2023-10-09T14:52:15;25.55;;;12.35;;
23181;SDS011;11759;51.282;6.642;2023-10-09T14:54:43;24.67;;;11.57;;
23181;SDS011;11759;51.282;6.642;2023-10-09T14:57:13;21.83;;;11.07;;
23181;SDS011;11759;51.282;6.642;2023-10-09T14:59:40;22.50;;;11.07;;
23181;SDS011;11759;51.282;6.642;2023-10-09T15:02:09;24.38;;;11.32;;
23181;SDS011;11759;51.282;6.642;2023-10-09T15:04:35;25.42;;;12.10;;
23181;SDS011;11759;51.282;6.642;2023-10-09T15:07:03;27.10;;;11.40;;
23181;SDS011;11759;51.282;6.642;2023-10-09T15:09:33;25.27;;;11.52;;
23181;SDS011;11759;51.282;6.642;2023-10-09T15:12:02;21.50;;;11.27;;
23181;SDS011;11759;51.282;6.642;2023-10-09T15:14:32;19.05;;;10.50;;
23181;SDS011;11759;51.282;6.642;2023-10-09T15:17:00;23.38;;;10.68;;
23181;SDS011;11759;51.282;6.642;2023-10-09T15:19:27;23.60;;;11.52;;
23181;SDS011;11759;51.282;6.642;2023-10-09T15:21:56;24.17;;;12.00;;
23181;SDS011;11759;51.282;6.642;2023-10-09T15:24:25;23.85;;;11.27;;
23181;SDS011;11759;51.282;6.642;2023-10-09T15:26:54;22.83;;;11.32;;
23181;SDS011;11759;51.282;6.642;2023-10-09T15:29:25;21.88;;;10.85;;
23181;SDS011;11759;51.282;6.642;2023-10-09T15:31:57;26.95;;;12.25;;
23181;SDS011;11759;51.282;6.642;2023-10-09T15:34:32;21.88;;;11.75;;
23181;SDS011;11759;51.282;6.642;2023-10-09T15:37:01;24.85;;;11.93;;
23181;SDS011;11759;51.282;6.642;2023-10-09T15:39:30;27.92;;;11.13;;
23181;SDS011;11759;51.282;6.642;2023-10-09T15:41:58;31.42;;;12.18;;
23181;SDS011;11759;51.282;6.642;2023-10-09T15:44:24;22.58;;;12.00;;
23181;SDS011;11759;51.282;6.642;2023-10-09T15:46:53;24.80;;;11.93;;
23181;SDS011;11759;51.282;6.642;2023-10-09T15:49:26;29.67;;;12.55;;
23181;SDS011;11759;51.282;6.642;2023-10-09T15:51:53;28.13;;;12.70;;
23181;SDS011;11759;51.282;6.642;2023-10-09T15:54:20;24.52;;;11.93;;
23181;SDS011;11759;51.282;6.642;2023-10-09T15:56:46;23.10;;;11.98;;